sensor_id;sensor_type;location;lat;lon;timestamp;P1;durP1;ratioP1;P2;durP2;ratioP2
823;SDS011;373;49.342;8.146;2023-06-26T00:02:00;4.70;;;4.30;;
823;SDS011;373;49.342;8.146;2023-06-26T00:04:28;5.72;;;5.22;;
823;SDS011;373;49.342;8.146;2023-06-26T00:06:55;4.28;;;3.97;;
823;SDS011;373;49.342;8.146;2023-06-26T00:09:22;4.88;;;4.50;;
823;SDS011;373;49.342;8.146;2023-06-26T00:11:50;4.85;;;4.50;;
823;SDS011;373;49.342;8.146;2023-06-26T00:14:18;4.65;;;4.35;;
823;SDS011;373;49.342;8.146;2023-06-26T00:16:46;4.90;;;4.50;;
823;SDS011;373;49.342;8.146;2023-06-26T00:19:14;5.00;;;4.60;;
823;SDS011;373;49.342;8.146;2023-06-26T00:21:45;5.82;;;5.32;;
823;SDS011;373;49.342;8.146;2023-06-26T00:24:13;5.25;;;4.85;;
823;SDS011;373;49.342;8.146;2023-06-26T00:26:40;5.15;;;4.75;;
823;SDS011;373;49.342;8.146;2023-06-26T00:29:08;5.65;;;4.78;;
823;SDS011;373;49.342;8.146;2023-06-26T00:31:35;5.57;;;5.10;;
823;SDS011;373;49.342;8.146;2023-06-26T00:34:05;5.30;;;4.90;;
823;SDS011;373;49.342;8.146;2023-06-26T00:36:32;5.18;;;4.78;;
823;SDS011;373;49.342;8.146;2023-06-26T00:38:59;4.72;;;4.32;;
823;SDS011;373;49.342;8.146;2023-06-26T00:41:27;5.28;;;4.78;;
823;SDS011;373;49.342;8.146;2023-06-26T00:43:54;4.75;;;4.35;;
823;SDS011;373;49.342;8.146;2023-06-26T00:46:22;4.90;;;4.47;;
823;SDS011;373;49.342;8.146;2023-06-26T00:48:51;4.93;;;4.47;;
823;SDS011;373;49.342;8.146;2023-06-26T00:51:20;5.70;;;5.20;;
823;SDS011;373;49.342;8.146;2023-06-26T00:53:49;5.22;;;4.82;;
823;SDS011;373;49.342;8.146;2023-06-26T00:56:17;4.90;;;4.50;;
823;SDS011;373;49.342;8.146;2023-06-26T00:58:45;5.13;;;4.72;;
823;SDS011;373;49.342;8.146;2023-06-26T01:01:12;4.60;;;4.22;;
823;SDS011;373;49.342;8.146;2023-06-26T01:03:43;5.20;;;4.80;;
823;SDS011;373;49.342;8.146;2023-06-26T01:06:12;4.60;;;4.18;;
823;SDS011;373;49.342;8.146;2023-06-26T01:08:41;5.43;;;4.97;;
823;SDS011;373;49.342;8.146;2023-06-26T01:11:09;4.90;;;4.50;;
823;SDS011;373;49.342;8.146;2023-06-26T01:13:37;5.05;;;4.65;;
823;SDS011;373;49.342;8.146;2023-06-26T01:16:06;4.78;;;4.38;;
823;SDS011;373;49.342;8.146;2023-06-26T01:18:33;4.90;;;4.50;;
823;SDS011;373;49.342;8.146;2023-06-26T01:21:10;5.05;;;4.65;;
823;SDS011;373;49.342;8.146;2023-06-26T01:23:44;4.82;;;4.43;;
823;SDS011;373;49.342;8.146;2023-06-26T01:26:27;4.88;;;4.53;;
823;SDS011;373;49.342;8.146;2023-06-26T01:28:56;5.90;;;4.93;;
823;SDS011;373;49.342;8.146;2023-06-26T01:31:26;4.82;;;4.53;;
823;SDS011;373;49.342;8.146;2023-06-26T01:33:55;4.35;;;4.05;;
823;SDS011;373;49.342;8.146;2023-06-26T01:36:24;5.43;;;5.03;;
823;SDS011;373;49.342;8.146;2023-06-26T01:38:51;4.63;;;4.22;;
823;SDS011;373;49.342;8.146;2023-06-26T01:41:18;4.57;;;4.28;;
823;SDS011;373;49.342;8.146;2023-06-26T01:44:03;5.22;;;4.82;;
823;SDS011;373;49.342;8.146;2023-06-26T01:46:43;5.25;;;4.75;;
823;SDS011;373;49.342;8.146;2023-06-26T01:49:20;4.78;;;4.38;;
823;SDS011;373;49.342;8.146;2023-06-26T01:51:55;4.53;;;4.22;;
823;SDS011;373;49.342;8.146;2023-06-26T01:54:29;5.05;;;4.65;;
823;SDS011;373;49.342;8.146;2023-06-26T01:56:59;5.07;;;4.68;;
823;SDS011;373;49.342;8.146;2023-06-26T01:59:28;4.80;;;4.40;;
823;SDS011;373;49.342;8.146;2023-06-26T02:02:01;5.15;;;4.75;;
823;SDS011;373;49.342;8.146;2023-06-26T02:04:28;5.45;;;5.05;;
823;SDS011;373;49.342;8.146;2023-06-26T02:06:55;4.57;;;4.20;;
823;SDS011;373;49.342;8.146;2023-06-26T02:09:22;4.80;;;4.30;;
823;SDS011;373;49.342;8.146;2023-06-26T02:11:49;4.45;;;4.15;;
823;SDS011;373;49.342;8.146;2023-06-26T02:14:17;5.05;;;4.65;;
823;SDS011;373;49.342;8.146;2023-06-26T02:16:45;4.60;;;4.30;;
823;SDS011;373;49.342;8.146;2023-06-26T02:19:12;4.53;;;4.10;;
823;SDS011;373;49.342;8.146;2023-06-26T02:21:47;5.05;;;4.65;;
823;SDS011;373;49.342;8.146;2023-06-26T02:24:15;5.22;;;4.32;;
823;SDS011;373;49.342;8.146;2023-06-26T02:26:42;4.72;;;4.32;;
823;SDS011;373;49.342;8.146;2023-06-26T02:29:10;4.88;;;4.47;;
823;SDS011;373;49.342;8.146;2023-06-26T02:31:39;4.78;;;4.47;;
823;SDS011;373;49.342;8.146;2023-06-26T02:34:07;5.28;;;4.88;;
823;SDS011;373;49.342;8.146;2023-06-26T02:36:34;5.32;;;4.60;;
823;SDS011;373;49.342;8.146;2023-06-26T02:39:04;5.30;;;4.90;;
823;SDS011;373;49.342;8.146;2023-06-26T02:41:32;4.55;;;4.15;;
823;SDS011;373;49.342;8.146;2023-06-26T02:44:00;5.00;;;4.60;;
823;SDS011;373;49.342;8.146;2023-06-26T02:46:27;5.15;;;4.65;;
823;SDS011;373;49.342;8.146;2023-06-26T02:48:55;5.93;;;5.00;;
823;SDS011;373;49.342;8.146;2023-06-26T02:51:24;5.30;;;4.80;;
823;SDS011;373;49.342;8.146;2023-06-26T02:53:53;4.70;;;4.30;;
823;SDS011;373;49.342;8.146;2023-06-26T02:56:20;4.95;;;4.55;;
823;SDS011;373;49.342;8.146;2023-06-26T02:58:47;4.53;;;4.13;;
823;SDS011;373;49.342;8.146;2023-06-26T03:01:14;5.25;;;4.85;;
823;SDS011;373;49.342;8.146;2023-06-26T03:03:42;5.13;;;4.63;;
823;SDS011;373;49.342;8.146;2023-06-26T03:06:15;4.57;;;4.28;;
823;SDS011;373;49.342;8.146;2023-06-26T03:08:45;4.80;;;4.40;;
823;SDS011;373;49.342;8.146;2023-06-26T03:11:14;4.82;;;4.53;;
823;SDS011;373;49.342;8.146;2023-06-26T03:13:41;5.05;;;4.65;;
823;SDS011;373;49.342;8.146;2023-06-26T03:16:08;5.18;;;4.78;;
823;SDS011;373;49.342;8.146;2023-06-26T03:18:35;5.20;;;4.80;;
823;SDS011;373;49.342;8.146;2023-06-26T03:21:02;4.97;;;4.57;;
823;SDS011;373;49.342;8.146;2023-06-26T03:23:30;5.22;;;4.82;;
823;SDS011;373;49.342;8.146;2023-06-26T03:25:58;5.78;;;5.30;;
823;SDS011;373;49.342;8.146;2023-06-26T03:28:29;5.40;;;5.00;;
823;SDS011;373;49.342;8.146;2023-06-26T03:30:57;4.78;;;4.38;;
823;SDS011;373;49.342;8.146;2023-06-26T03:33:25;5.28;;;4.65;;
823;SDS011;373;49.342;8.146;2023-06-26T03:35:53;5.25;;;4.75;;
823;SDS011;373;49.342;8.146;2023-06-26T03:38:21;5.30;;;4.90;;
823;SDS011;373;49.342;8.146;2023-06-26T03:40:51;5.43;;;5.03;;
823;SDS011;373;49.342;8.146;2023-06-26T03:43:19;5.78;;;5.28;;
823;SDS011;373;49.342;8.146;2023-06-26T03:46:13;5.13;;;4.72;;
823;SDS011;373;49.342;8.146;2023-06-26T03:48:40;5.47;;;5.07;;
823;SDS011;373;49.342;8.146;2023-06-26T03:51:07;5.55;;;5.05;;
823;SDS011;373;49.342;8.146;2023-06-26T03:53:35;5.00;;;4.50;;
823;SDS011;373;49.342;8.146;2023-06-26T03:56:02;4.90;;;4.57;;
823;SDS011;373;49.342;8.146;2023-06-26T03:58:30;5.07;;;4.68;;
823;SDS011;373;49.342;8.146;2023-06-26T04:00:57;5.82;;;5.43;;
823;SDS011;373;49.342;8.146;2023-06-26T04:03:26;4.97;;;4.60;;
823;SDS011;373;49.342;8.146;2023-06-26T04:06:01;5.07;;;4.68;;
823;SDS011;373;49.342;8.146;2023-06-26T04:08:28;5.40;;;4.97;;
823;SDS011;373;49.342;8.146;2023-06-26T04:10:55;5.32;;;4.82;;
823;SDS011;373;49.342;8.146;2023-06-26T04:13:24;6.03;;;5.43;;
823;SDS011;373;49.342;8.146;2023-06-26T04:15:52;6.75;;;5.70;;
823;SDS011;373;49.342;8.146;2023-06-26T04:18:19;5.55;;;5.13;;
823;SDS011;373;49.342;8.146;2023-06-26T04:21:06;6.25;;;5.75;;
823;SDS011;373;49.342;8.146;2023-06-26T04:23:34;4.97;;;4.57;;
823;SDS011;373;49.342;8.146;2023-06-26T04:26:01;6.13;;;5.50;;
823;SDS011;373;49.342;8.146;2023-06-26T04:28:30;6.25;;;5.75;;
823;SDS011;373;49.342;8.146;2023-06-26T04:30:58;9.25;;;6.07;;
823;SDS011;373;49.342;8.146;2023-06-26T04:33:26;6.07;;;5.45;;
823;SDS011;373;49.342;8.146;2023-06-26T04:35:53;6.65;;;5.55;;
823;SDS011;373;49.342;8.146;2023-06-26T04:38:20;9.48;;;6.00;;
823;SDS011;373;49.342;8.146;2023-06-26T04:40:47;6.05;;;5.55;;
823;SDS011;373;49.342;8.146;2023-06-26T04:43:15;6.07;;;5.57;;
823;SDS011;373;49.342;8.146;2023-06-26T04:45:42;6.70;;;5.32;;
823;SDS011;373;49.342;8.146;2023-06-26T04:48:11;5.85;;;5.35;;
823;SDS011;373;49.342;8.146;2023-06-26T04:50:38;6.10;;;5.50;;
823;SDS011;373;49.342;8.146;2023-06-26T04:53:06;6.40;;;5.80;;
823;SDS011;373;49.342;8.146;2023-06-26T04:55:33;6.15;;;5.55;;
823;SDS011;373;49.342;8.146;2023-06-26T04:58:00;7.95;;;5.57;;
823;SDS011;373;49.342;8.146;2023-06-26T05:00:27;6.38;;;5.78;;
823;SDS011;373;49.342;8.146;2023-06-26T05:02:54;5.78;;;4.88;;
823;SDS011;373;49.342;8.146;2023-06-26T05:05:27;8.48;;;6.65;;
823;SDS011;373;49.342;8.146;2023-06-26T05:07:55;5.97;;;5.18;;
823;SDS011;373;49.342;8.146;2023-06-26T05:10:22;5.93;;;5.25;;
823;SDS011;373;49.342;8.146;2023-06-26T05:12:49;5.97;;;5.47;;
823;SDS011;373;49.342;8.146;2023-06-26T05:15:16;6.85;;;6.18;;
823;SDS011;373;49.342;8.146;2023-06-26T05:17:43;7.32;;;5.80;;
823;SDS011;373;49.342;8.146;2023-06-26T05:20:11;6.18;;;5.60;;
823;SDS011;373;49.342;8.146;2023-06-26T05:22:40;6.40;;;5.90;;
823;SDS011;373;49.342;8.146;2023-06-26T05:25:08;6.80;;;6.05;;
823;SDS011;373;49.342;8.146;2023-06-26T05:27:36;7.13;;;6.00;;
823;SDS011;373;49.342;8.146;2023-06-26T05:30:04;6.65;;;6.00;;
823;SDS011;373;49.342;8.146;2023-06-26T05:32:33;6.07;;;5.57;;
823;SDS011;373;49.342;8.146;2023-06-26T05:35:02;6.53;;;5.93;;
823;SDS011;373;49.342;8.146;2023-06-26T05:37:30;5.35;;;4.85;;
823;SDS011;373;49.342;8.146;2023-06-26T05:40:00;6.85;;;5.72;;
823;SDS011;373;49.342;8.146;2023-06-26T05:42:32;5.60;;;5.10;;
823;SDS011;373;49.342;8.146;2023-06-26T05:45:00;6.30;;;5.70;;
823;SDS011;373;49.342;8.146;2023-06-26T05:47:27;5.70;;;5.20;;
823;SDS011;373;49.342;8.146;2023-06-26T05:49:54;6.72;;;5.55;;
823;SDS011;373;49.342;8.146;2023-06-26T05:52:22;5.85;;;4.93;;
823;SDS011;373;49.342;8.146;2023-06-26T05:54:49;5.72;;;5.15;;
823;SDS011;373;49.342;8.146;2023-06-26T05:57:18;5.60;;;5.20;;
823;SDS011;373;49.342;8.146;2023-06-26T05:59:46;5.40;;;5.00;;
823;SDS011;373;49.342;8.146;2023-06-26T06:02:13;5.22;;;4.82;;
823;SDS011;373;49.342;8.146;2023-06-26T06:04:40;5.38;;;4.97;;
823;SDS011;373;49.342;8.146;2023-06-26T06:07:07;5.80;;;5.30;;
823;SDS011;373;49.342;8.146;2023-06-26T06:09:34;6.32;;;5.82;;
823;SDS011;373;49.342;8.146;2023-06-26T06:12:02;6.88;;;5.50;;
823;SDS011;373;49.342;8.146;2023-06-26T06:14:32;10.52;;;5.30;;
823;SDS011;373;49.342;8.146;2023-06-26T06:16:59;6.78;;;5.50;;
823;SDS011;373;49.342;8.146;2023-06-26T06:19:26;5.85;;;5.35;;
823;SDS011;373;49.342;8.146;2023-06-26T06:21:53;6.95;;;5.10;;
823;SDS011;373;49.342;8.146;2023-06-26T06:24:20;6.03;;;5.53;;
823;SDS011;373;49.342;8.146;2023-06-26T06:26:47;6.35;;;5.75;;
823;SDS011;373;49.342;8.146;2023-06-26T06:29:14;5.90;;;5.40;;
823;SDS011;373;49.342;8.146;2023-06-26T06:31:45;6.20;;;5.40;;
823;SDS011;373;49.342;8.146;2023-06-26T06:34:13;5.82;;;5.32;;
823;SDS011;373;49.342;8.146;2023-06-26T06:36:40;5.45;;;5.05;;
823;SDS011;373;49.342;8.146;2023-06-26T06:39:08;6.07;;;5.57;;
823;SDS011;373;49.342;8.146;2023-06-26T06:41:35;5.68;;;5.28;;
823;SDS011;373;49.342;8.146;2023-06-26T06:44:09;6.13;;;5.63;;
823;SDS011;373;49.342;8.146;2023-06-26T06:46:55;5.63;;;5.22;;
823;SDS011;373;49.342;8.146;2023-06-26T06:49:27;6.43;;;5.93;;
823;SDS011;373;49.342;8.146;2023-06-26T06:51:55;6.57;;;5.70;;
823;SDS011;373;49.342;8.146;2023-06-26T06:54:25;18.60;;;16.63;;
823;SDS011;373;49.342;8.146;2023-06-26T06:56:54;24.38;;;20.05;;
823;SDS011;373;49.342;8.146;2023-06-26T06:59:21;9.30;;;8.40;;
823;SDS011;373;49.342;8.146;2023-06-26T07:01:58;6.90;;;6.30;;
823;SDS011;373;49.342;8.146;2023-06-26T07:04:31;6.95;;;6.30;;
823;SDS011;373;49.342;8.146;2023-06-26T07:07:00;7.00;;;6.28;;
823;SDS011;373;49.342;8.146;2023-06-26T07:09:39;6.22;;;5.72;;
823;SDS011;373;49.342;8.146;2023-06-26T07:12:26;5.93;;;5.20;;
823;SDS011;373;49.342;8.146;2023-06-26T07:15:14;6.78;;;6.07;;
823;SDS011;373;49.342;8.146;2023-06-26T07:18:02;6.10;;;5.35;;
823;SDS011;373;49.342;8.146;2023-06-26T07:23:31;5.63;;;5.00;;
823;SDS011;373;49.342;8.146;2023-06-26T07:26:01;5.45;;;5.05;;
823;SDS011;373;49.342;8.146;2023-06-26T07:28:35;5.50;;;5.00;;
823;SDS011;373;49.342;8.146;2023-06-26T07:31:02;5.22;;;4.82;;
823;SDS011;373;49.342;8.146;2023-06-26T07:33:44;5.88;;;5.28;;
823;SDS011;373;49.342;8.146;2023-06-26T07:36:11;6.75;;;5.30;;
823;SDS011;373;49.342;8.146;2023-06-26T07:38:41;5.60;;;5.10;;
823;SDS011;373;49.342;8.146;2023-06-26T07:41:30;7.22;;;4.72;;
823;SDS011;373;49.342;8.146;2023-06-26T07:44:01;5.38;;;4.88;;
823;SDS011;373;49.342;8.146;2023-06-26T07:46:29;5.47;;;4.63;;
823;SDS011;373;49.342;8.146;2023-06-26T07:49:01;4.63;;;4.30;;
823;SDS011;373;49.342;8.146;2023-06-26T07:51:30;5.18;;;4.72;;
823;SDS011;373;49.342;8.146;2023-06-26T07:53:57;4.90;;;4.50;;
823;SDS011;373;49.342;8.146;2023-06-26T07:56:26;4.90;;;4.50;;
823;SDS011;373;49.342;8.146;2023-06-26T07:59:26;4.53;;;4.15;;
823;SDS011;373;49.342;8.146;2023-06-26T08:02:00;4.97;;;4.38;;
823;SDS011;373;49.342;8.146;2023-06-26T08:04:29;5.15;;;4.75;;
823;SDS011;373;49.342;8.146;2023-06-26T08:06:57;4.93;;;4.43;;
823;SDS011;373;49.342;8.146;2023-06-26T08:09:34;4.53;;;4.07;;
823;SDS011;373;49.342;8.146;2023-06-26T08:12:08;4.60;;;4.30;;
823;SDS011;373;49.342;8.146;2023-06-26T08:14:43;4.93;;;4.53;;
823;SDS011;373;49.342;8.146;2023-06-26T08:17:27;4.68;;;4.35;;
823;SDS011;373;49.342;8.146;2023-06-26T08:20:03;4.45;;;4.15;;
823;SDS011;373;49.342;8.146;2023-06-26T08:22:43;4.53;;;4.22;;
823;SDS011;373;49.342;8.146;2023-06-26T08:25:30;4.18;;;3.88;;
823;SDS011;373;49.342;8.146;2023-06-26T08:28:17;5.00;;;4.60;;
823;SDS011;373;49.342;8.146;2023-06-26T08:30:47;4.45;;;4.15;;
823;SDS011;373;49.342;8.146;2023-06-26T08:33:18;5.07;;;4.68;;
823;SDS011;373;49.342;8.146;2023-06-26T08:35:46;5.57;;;5.10;;
823;SDS011;373;49.342;8.146;2023-06-26T08:38:17;4.97;;;4.47;;
823;SDS011;373;49.342;8.146;2023-06-26T08:40:48;5.10;;;4.70;;
823;SDS011;373;49.342;8.146;2023-06-26T08:43:30;5.35;;;4.88;;
823;SDS011;373;49.342;8.146;2023-06-26T08:45:57;5.20;;;4.80;;
823;SDS011;373;49.342;8.146;2023-06-26T08:48:26;5.38;;;4.97;;
823;SDS011;373;49.342;8.146;2023-06-26T08:51:16;5.40;;;4.60;;
823;SDS011;373;49.342;8.146;2023-06-26T08:53:56;5.30;;;4.90;;
823;SDS011;373;49.342;8.146;2023-06-26T08:56:37;5.65;;;5.25;;
823;SDS011;373;49.342;8.146;2023-06-26T08:59:19;5.10;;;4.70;;
823;SDS011;373;49.342;8.146;2023-06-26T09:01:52;5.85;;;5.35;;
823;SDS011;373;49.342;8.146;2023-06-26T09:04:23;6.18;;;4.93;;
823;SDS011;373;49.342;8.146;2023-06-26T09:07:07;5.47;;;4.82;;
823;SDS011;373;49.342;8.146;2023-06-26T09:09:43;5.43;;;4.93;;
823;SDS011;373;49.342;8.146;2023-06-26T09:12:19;8.00;;;5.20;;
823;SDS011;373;49.342;8.146;2023-06-26T09:14:48;5.50;;;5.00;;
823;SDS011;373;49.342;8.146;2023-06-26T09:17:29;5.93;;;5.30;;
823;SDS011;373;49.342;8.146;2023-06-26T09:23:14;5.65;;;5.25;;
823;SDS011;373;49.342;8.146;2023-06-26T09:25:53;6.05;;;5.55;;
823;SDS011;373;49.342;8.146;2023-06-26T09:28:21;5.85;;;5.35;;
823;SDS011;373;49.342;8.146;2023-06-26T09:30:49;5.75;;;5.35;;
823;SDS011;373;49.342;8.146;2023-06-26T09:33:19;5.70;;;5.30;;
823;SDS011;373;49.342;8.146;2023-06-26T09:35:59;8.88;;;5.70;;
823;SDS011;373;49.342;8.146;2023-06-26T09:38:51;6.15;;;5.65;;
823;SDS011;373;49.342;8.146;2023-06-26T09:41:21;5.40;;;4.97;;
823;SDS011;373;49.342;8.146;2023-06-26T09:43:49;5.75;;;5.25;;
823;SDS011;373;49.342;8.146;2023-06-26T09:46:24;6.22;;;5.72;;
823;SDS011;373;49.342;8.146;2023-06-26T09:48:57;5.90;;;5.50;;
823;SDS011;373;49.342;8.146;2023-06-26T09:51:44;6.70;;;6.13;;
823;SDS011;373;49.342;8.146;2023-06-26T09:54:38;5.47;;;4.97;;
823;SDS011;373;49.342;8.146;2023-06-26T09:57:09;5.85;;;5.40;;
823;SDS011;373;49.342;8.146;2023-06-26T09:59:37;6.35;;;5.82;;
823;SDS011;373;49.342;8.146;2023-06-26T10:02:12;5.97;;;5.38;;
823;SDS011;373;49.342;8.146;2023-06-26T10:04:43;8.13;;;5.38;;
823;SDS011;373;49.342;8.146;2023-06-26T10:07:12;6.60;;;5.50;;
823;SDS011;373;49.342;8.146;2023-06-26T10:09:45;5.65;;;5.15;;
823;SDS011;373;49.342;8.146;2023-06-26T10:12:28;5.53;;;5.10;;
823;SDS011;373;49.342;8.146;2023-06-26T10:15:09;5.47;;;4.97;;
823;SDS011;373;49.342;8.146;2023-06-26T10:17:44;6.05;;;5.47;;
823;SDS011;373;49.342;8.146;2023-06-26T10:20:21;5.40;;;4.90;;
823;SDS011;373;49.342;8.146;2023-06-26T10:23:06;6.03;;;5.47;;
823;SDS011;373;49.342;8.146;2023-06-26T10:25:44;5.30;;;4.65;;
823;SDS011;373;49.342;8.146;2023-06-26T10:28:16;5.32;;;4.93;;
823;SDS011;373;49.342;8.146;2023-06-26T10:30:44;5.70;;;5.20;;
823;SDS011;373;49.342;8.146;2023-06-26T10:33:16;7.75;;;5.78;;
823;SDS011;373;49.342;8.146;2023-06-26T10:35:44;5.68;;;5.18;;
823;SDS011;373;49.342;8.146;2023-06-26T10:38:12;7.47;;;6.10;;
823;SDS011;373;49.342;8.146;2023-06-26T10:40:51;5.85;;;5.35;;
823;SDS011;373;49.342;8.146;2023-06-26T10:43:31;6.28;;;5.75;;
823;SDS011;373;49.342;8.146;2023-06-26T10:45:58;5.65;;;5.18;;
823;SDS011;373;49.342;8.146;2023-06-26T10:48:28;5.50;;;5.00;;
823;SDS011;373;49.342;8.146;2023-06-26T10:50:56;5.82;;;5.32;;
823;SDS011;373;49.342;8.146;2023-06-26T10:53:23;5.60;;;5.10;;
823;SDS011;373;49.342;8.146;2023-06-26T10:55:56;5.10;;;4.47;;
823;SDS011;373;49.342;8.146;2023-06-26T10:58:29;5.03;;;4.63;;
823;SDS011;373;49.342;8.146;2023-06-26T11:04:05;6.03;;;4.60;;
823;SDS011;373;49.342;8.146;2023-06-26T11:09:43;5.38;;;4.93;;
823;SDS011;373;49.342;8.146;2023-06-26T11:12:37;4.85;;;4.45;;
823;SDS011;373;49.342;8.146;2023-06-26T11:15:19;8.32;;;4.82;;
823;SDS011;373;49.342;8.146;2023-06-26T11:17:47;5.55;;;5.13;;
823;SDS011;373;49.342;8.146;2023-06-26T11:20:16;5.07;;;4.65;;
823;SDS011;373;49.342;8.146;2023-06-26T11:22:43;4.95;;;4.55;;
823;SDS011;373;49.342;8.146;2023-06-26T11:25:10;4.82;;;4.43;;
823;SDS011;373;49.342;8.146;2023-06-26T11:28:05;4.38;;;3.97;;
823;SDS011;373;49.342;8.146;2023-06-26T11:30:46;4.65;;;4.25;;
823;SDS011;373;49.342;8.146;2023-06-26T11:33:13;5.97;;;4.53;;
823;SDS011;373;49.342;8.146;2023-06-26T11:35:41;4.10;;;3.67;;
823;SDS011;373;49.342;8.146;2023-06-26T11:38:11;3.90;;;3.60;;
823;SDS011;373;49.342;8.146;2023-06-26T11:40:39;4.85;;;4.35;;
823;SDS011;373;49.342;8.146;2023-06-26T11:43:07;4.20;;;3.80;;
823;SDS011;373;49.342;8.146;2023-06-26T11:45:37;4.60;;;4.20;;
823;SDS011;373;49.342;8.146;2023-06-26T11:48:05;4.93;;;4.47;;
823;SDS011;373;49.342;8.146;2023-06-26T11:50:36;5.03;;;3.85;;
823;SDS011;373;49.342;8.146;2023-06-26T11:53:04;4.53;;;4.13;;
823;SDS011;373;49.342;8.146;2023-06-26T11:55:40;4.05;;;3.55;;
823;SDS011;373;49.342;8.146;2023-06-26T11:58:24;4.30;;;3.65;;
823;SDS011;373;49.342;8.146;2023-06-26T12:00:54;4.18;;;3.80;;
823;SDS011;373;49.342;8.146;2023-06-26T12:03:25;4.63;;;3.72;;
823;SDS011;373;49.342;8.146;2023-06-26T12:06:07;4.40;;;4.00;;
823;SDS011;373;49.342;8.146;2023-06-26T12:08:56;4.55;;;3.92;;
823;SDS011;373;49.342;8.146;2023-06-26T12:11:56;5.03;;;4.47;;
823;SDS011;373;49.342;8.146;2023-06-26T12:14:27;4.63;;;4.30;;
823;SDS011;373;49.342;8.146;2023-06-26T12:16:56;6.70;;;4.57;;
823;SDS011;373;49.342;8.146;2023-06-26T12:20:00;5.05;;;4.65;;
823;SDS011;373;49.342;8.146;2023-06-26T12:22:57;8.50;;;6.38;;
823;SDS011;373;49.342;8.146;2023-06-26T12:25:37;7.63;;;6.93;;
823;SDS011;373;49.342;8.146;2023-06-26T12:28:39;6.15;;;5.55;;
823;SDS011;373;49.342;8.146;2023-06-26T12:31:33;7.53;;;6.30;;
823;SDS011;373;49.342;8.146;2023-06-26T12:34:09;8.18;;;7.07;;
823;SDS011;373;49.342;8.146;2023-06-26T12:36:40;7.07;;;6.40;;
823;SDS011;373;49.342;8.146;2023-06-26T12:39:10;7.35;;;6.75;;
823;SDS011;373;49.342;8.146;2023-06-26T12:41:54;6.35;;;5.85;;
823;SDS011;373;49.342;8.146;2023-06-26T12:44:30;7.03;;;6.35;;
823;SDS011;373;49.342;8.146;2023-06-26T12:47:03;7.78;;;7.07;;
823;SDS011;373;49.342;8.146;2023-06-26T12:49:39;7.38;;;6.68;;
823;SDS011;373;49.342;8.146;2023-06-26T12:52:15;8.00;;;7.30;;
823;SDS011;373;49.342;8.146;2023-06-26T12:54:57;6.45;;;5.85;;
823;SDS011;373;49.342;8.146;2023-06-26T12:57:28;6.10;;;5.57;;
823;SDS011;373;49.342;8.146;2023-06-26T13:03:03;6.85;;;5.43;;
823;SDS011;373;49.342;8.146;2023-06-26T13:05:30;6.40;;;5.90;;
823;SDS011;373;49.342;8.146;2023-06-26T13:07:58;6.72;;;5.35;;
823;SDS011;373;49.342;8.146;2023-06-26T13:10:35;6.22;;;5.70;;
823;SDS011;373;49.342;8.146;2023-06-26T13:13:10;6.70;;;5.82;;
823;SDS011;373;49.342;8.146;2023-06-26T13:15:37;6.28;;;5.72;;
823;SDS011;373;49.342;8.146;2023-06-26T13:18:06;5.72;;;5.13;;
823;SDS011;373;49.342;8.146;2023-06-26T13:20:34;4.85;;;4.45;;
823;SDS011;373;49.342;8.146;2023-06-26T13:23:10;4.72;;;4.43;;
823;SDS011;373;49.342;8.146;2023-06-26T13:25:42;4.75;;;4.18;;
823;SDS011;373;49.342;8.146;2023-06-26T13:28:09;4.38;;;3.35;;
823;SDS011;373;49.342;8.146;2023-06-26T13:30:40;3.38;;;3.08;;
823;SDS011;373;49.342;8.146;2023-06-26T13:33:13;3.05;;;2.80;;
823;SDS011;373;49.342;8.146;2023-06-26T13:35:41;2.58;;;2.38;;
823;SDS011;373;49.342;8.146;2023-06-26T13:38:08;3.30;;;2.60;;
823;SDS011;373;49.342;8.146;2023-06-26T13:40:36;2.85;;;2.40;;
823;SDS011;373;49.342;8.146;2023-06-26T13:43:03;4.22;;;2.17;;
823;SDS011;373;49.342;8.146;2023-06-26T13:45:40;2.67;;;1.95;;
823;SDS011;373;49.342;8.146;2023-06-26T13:48:17;1.92;;;1.70;;
823;SDS011;373;49.342;8.146;2023-06-26T13:50:55;2.83;;;1.77;;
823;SDS011;373;49.342;8.146;2023-06-26T13:53:24;3.05;;;1.70;;
823;SDS011;373;49.342;8.146;2023-06-26T13:55:53;1.98;;;1.60;;
823;SDS011;373;49.342;8.146;2023-06-26T13:58:25;6.40;;;2.00;;
823;SDS011;373;49.342;8.146;2023-06-26T14:04:13;1.92;;;1.67;;
823;SDS011;373;49.342;8.146;2023-06-26T14:06:40;2.08;;;1.70;;
823;SDS011;373;49.342;8.146;2023-06-26T14:09:10;2.42;;;1.65;;
823;SDS011;373;49.342;8.146;2023-06-26T14:11:38;3.92;;;1.60;;
823;SDS011;373;49.342;8.146;2023-06-26T14:14:05;3.65;;;2.10;;
823;SDS011;373;49.342;8.146;2023-06-26T14:16:34;2.88;;;1.45;;
823;SDS011;373;49.342;8.146;2023-06-26T14:19:02;3.35;;;1.60;;
823;SDS011;373;49.342;8.146;2023-06-26T14:21:31;3.45;;;1.60;;
823;SDS011;373;49.342;8.146;2023-06-26T14:24:00;3.75;;;1.80;;
823;SDS011;373;49.342;8.146;2023-06-26T14:26:43;3.45;;;1.50;;
823;SDS011;373;49.342;8.146;2023-06-26T14:29:15;2.95;;;1.67;;
823;SDS011;373;49.342;8.146;2023-06-26T14:31:48;2.92;;;1.85;;
823;SDS011;373;49.342;8.146;2023-06-26T14:34:16;2.75;;;1.80;;
823;SDS011;373;49.342;8.146;2023-06-26T14:36:50;3.63;;;1.80;;
823;SDS011;373;49.342;8.146;2023-06-26T14:42:07;2.22;;;1.73;;
823;SDS011;373;49.342;8.146;2023-06-26T14:44:37;3.20;;;1.48;;
823;SDS011;373;49.342;8.146;2023-06-26T14:47:14;2.33;;;1.50;;
823;SDS011;373;49.342;8.146;2023-06-26T14:49:45;2.28;;;1.85;;
823;SDS011;373;49.342;8.146;2023-06-26T14:52:28;2.53;;;1.52;;
823;SDS011;373;49.342;8.146;2023-06-26T14:55:05;2.83;;;1.88;;
823;SDS011;373;49.342;8.146;2023-06-26T14:57:35;2.38;;;1.80;;
823;SDS011;373;49.342;8.146;2023-06-26T15:00:03;2.55;;;1.50;;
823;SDS011;373;49.342;8.146;2023-06-26T15:02:43;1.63;;;1.48;;
823;SDS011;373;49.342;8.146;2023-06-26T15:05:18;2.67;;;1.30;;
823;SDS011;373;49.342;8.146;2023-06-26T15:07:52;2.55;;;1.50;;
823;SDS011;373;49.342;8.146;2023-06-26T15:10:20;3.25;;;1.70;;
823;SDS011;373;49.342;8.146;2023-06-26T15:12:49;1.63;;;1.30;;
823;SDS011;373;49.342;8.146;2023-06-26T15:15:31;1.83;;;1.30;;
823;SDS011;373;49.342;8.146;2023-06-26T15:18:02;3.10;;;1.33;;
823;SDS011;373;49.342;8.146;2023-06-26T15:20:34;1.98;;;1.75;;
823;SDS011;373;49.342;8.146;2023-06-26T15:23:19;2.63;;;1.48;;
823;SDS011;373;49.342;8.146;2023-06-26T15:25:51;2.00;;;1.38;;
823;SDS011;373;49.342;8.146;2023-06-26T15:28:23;2.25;;;1.42;;
823;SDS011;373;49.342;8.146;2023-06-26T15:30:50;3.47;;;1.58;;
823;SDS011;373;49.342;8.146;2023-06-26T15:33:21;3.42;;;1.70;;
823;SDS011;373;49.342;8.146;2023-06-26T15:35:52;1.40;;;1.20;;
823;SDS011;373;49.342;8.146;2023-06-26T15:38:21;1.35;;;1.00;;
823;SDS011;373;49.342;8.146;2023-06-26T15:40:48;1.77;;;1.52;;
823;SDS011;373;49.342;8.146;2023-06-26T15:43:15;1.70;;;1.58;;
823;SDS011;373;49.342;8.146;2023-06-26T15:45:50;1.73;;;1.30;;
823;SDS011;373;49.342;8.146;2023-06-26T15:48:20;1.48;;;1.27;;
823;SDS011;373;49.342;8.146;2023-06-26T15:51:02;2.10;;;1.58;;
823;SDS011;373;49.342;8.146;2023-06-26T15:53:35;2.95;;;1.10;;
823;SDS011;373;49.342;8.146;2023-06-26T15:56:09;1.75;;;1.20;;
823;SDS011;373;49.342;8.146;2023-06-26T15:59:05;2.25;;;1.85;;
823;SDS011;373;49.342;8.146;2023-06-26T16:01:43;3.13;;;1.35;;
823;SDS011;373;49.342;8.146;2023-06-26T16:04:22;1.88;;;1.30;;
823;SDS011;373;49.342;8.146;2023-06-26T16:07:01;1.83;;;1.00;;
823;SDS011;373;49.342;8.146;2023-06-26T16:09:49;1.63;;;1.52;;
823;SDS011;373;49.342;8.146;2023-06-26T16:12:26;3.22;;;1.48;;
823;SDS011;373;49.342;8.146;2023-06-26T16:14:56;1.58;;;1.08;;
823;SDS011;373;49.342;8.146;2023-06-26T16:17:23;1.75;;;1.42;;
823;SDS011;373;49.342;8.146;2023-06-26T16:19:51;1.58;;;1.48;;
823;SDS011;373;49.342;8.146;2023-06-26T16:22:21;1.67;;;1.15;;
823;SDS011;373;49.342;8.146;2023-06-26T16:24:52;2.13;;;1.20;;
823;SDS011;373;49.342;8.146;2023-06-26T16:27:20;1.77;;;1.63;;
823;SDS011;373;49.342;8.146;2023-06-26T16:29:47;1.50;;;1.40;;
823;SDS011;373;49.342;8.146;2023-06-26T16:32:17;2.17;;;1.75;;
823;SDS011;373;49.342;8.146;2023-06-26T16:34:44;1.48;;;1.10;;
823;SDS011;373;49.342;8.146;2023-06-26T16:37:12;3.67;;;1.33;;